Old Hickory, Tennessee
Current Conditions -  °F | °C
As of 9:53 PM on Wednesday 28 Jan 2015 (Local Time) from KBNA Reporting Station
Scattered Clouds Scattered Clouds  
Wind Chill: 37°   Ceiling: Unl
Heat Index: 40°   Visibility: 10mi
Dew Point: 27°   Wind: 5mph
Humidity: 60%   Direction: 170°S
Pressure: 30.16"   Gusts: NA
Location:  36.26°N, 86.65°W
Report Text: KBNA 290353Z 17004KT 10SM SCT250 04/M03 A3016 RMK AO2 SLP216 T00441028 $
Loading
Personal Weather Stations






























Interactive Weather Map New forecast layout! Learn more

10-Day Weather Forecast

Advertisements
Track Severe Weather on mobile